Fonda, Vermont
Current Conditions -  °F | °C
As of 11:55 AM on Tuesday 27 Jan 2015 (Local Time) from KFSO Reporting Station
Overcast Overcast  
Wind Chill: -10°   Ceiling: 10000
Heat Index:   Visibility: 10mi
Dew Point: -5°   Wind: 16mph
Humidity: 57%   Direction: 360°N
Pressure: 29.98"   Gusts: 24mph
Location:  44.9002°N, 73.1493°W
Report Text: KFSO 271655Z AUTO 36014G21KT 10SM OVC100 M14/M20 A2998 RMK AO2 T11361204
Loading
Personal Weather Stations






























Interactive Weather Map New forecast layout! Learn more

10-Day Weather Forecast

Advertisements
Track Severe Weather on mobile